createdAt,value
2022-11-05T00:00:19.590Z,6.68
2022-11-05T00:03:21.484Z,7.13
2022-11-05T00:06:23.522Z,5.88
2022-11-05T00:09:25.532Z,6.07
2022-11-05T00:12:27.373Z,6.10
2022-11-05T00:15:29.151Z,5.30
2022-11-05T00:18:31.224Z,6.05
2022-11-05T00:21:37.789Z,5.88
2022-11-05T00:24:39.694Z,5.43
2022-11-05T00:27:41.690Z,5.63
2022-11-05T00:30:43.720Z,4.75
2022-11-05T00:33:45.802Z,6.13
2022-11-05T00:36:48.185Z,5.72
2022-11-05T00:39:50.097Z,6.13
2022-11-05T00:42:52.122Z,5.95
2022-11-05T00:45:54.020Z,6.30
2022-11-05T00:48:56.189Z,7.47
2022-11-05T00:51:58.069Z,5.90
2022-11-05T00:55:04.001Z,8.48
2022-11-05T00:58:11.497Z,10.63
2022-11-05T01:01:16.000Z,8.15
2022-11-05T01:04:17.971Z,6.07
2022-11-05T01:07:19.951Z,6.30
2022-11-05T01:10:21.857Z,9.27
2022-11-05T01:13:27.073Z,7.70
2022-11-05T01:16:29.945Z,7.50
2022-11-05T01:19:31.850Z,8.13
2022-11-05T01:22:33.966Z,8.40
2022-11-05T01:25:36.108Z,7.65
2022-11-05T01:28:37.981Z,7.70
2022-11-05T01:31:39.890Z,7.57
2022-11-05T01:34:41.889Z,7.95
2022-11-05T01:37:43.765Z,10.23
2022-11-05T01:40:46.188Z,7.70
2022-11-05T01:43:53.457Z,10.77
2022-11-05T01:46:56.355Z,8.60
2022-11-05T01:50:01.680Z,8.07
2022-11-05T01:53:26.673Z,10.00
2022-11-05T01:56:51.511Z,9.57
2022-11-05T01:59:58.566Z,9.20
2022-11-05T02:03:01.455Z,9.18
2022-11-05T02:06:04.420Z,10.15
2022-11-05T02:09:15.927Z,12.85
2022-11-05T02:12:20.192Z,9.70
2022-11-05T02:15:39.985Z,10.05
2022-11-05T02:19:00.288Z,11.35
2022-11-05T02:22:23.568Z,10.60
2022-11-05T02:26:02.867Z,10.52
2022-11-05T02:29:41.486Z,10.20
2022-11-05T02:33:00.169Z,10.82
2022-11-05T02:36:23.404Z,8.07
2022-11-05T02:39:54.646Z,9.73
2022-11-05T02:43:05.906Z,8.18
2022-11-05T02:46:33.926Z,9.98
2022-11-05T02:49:53.067Z,8.68
2022-11-05T02:53:05.101Z,10.02
2022-11-05T02:56:17.828Z,7.63
2022-11-05T02:59:20.750Z,9.15
2022-11-05T03:02:22.696Z,8.20
2022-11-05T03:05:36.794Z,9.23
2022-11-05T03:09:16.317Z,8.85
2022-11-05T03:12:21.400Z,10.10
2022-11-05T03:15:50.817Z,10.23
2022-11-05T03:19:19.835Z,8.57
2022-11-05T03:22:41.552Z,7.80
2022-11-05T03:25:49.021Z,9.50
2022-11-05T03:29:04.162Z,11.07
2022-11-05T03:32:11.049Z,8.50
2022-11-05T03:35:30.654Z,8.55
2022-11-05T03:38:35.796Z,13.52
2022-11-05T03:41:40.943Z,8.52
2022-11-05T03:44:47.991Z,8.07
2022-11-05T03:47:54.547Z,9.40
2022-11-05T03:51:16.373Z,9.82
2022-11-05T03:54:18.297Z,7.72
2022-11-05T03:57:29.859Z,7.93
2022-11-05T04:00:32.230Z,7.93
2022-11-05T04:03:35.966Z,7.53
2022-11-05T04:06:38.162Z,9.75
2022-11-05T04:09:40.162Z,8.43
2022-11-05T04:12:42.495Z,8.07
2022-11-05T04:15:44.687Z,8.18
2022-11-05T04:18:46.593Z,8.43
2022-11-05T04:21:48.729Z,7.65
2022-11-05T04:24:50.604Z,9.60
2022-11-05T04:27:52.702Z,10.30
2022-11-05T04:30:54.497Z,9.00
2022-11-05T04:33:57.220Z,8.10
2022-11-05T04:36:59.142Z,8.25
2022-11-05T04:40:01.342Z,8.50
2022-11-05T04:43:03.714Z,9.10
2022-11-05T04:46:06.144Z,8.10
2022-11-05T04:49:08.259Z,8.10
2022-11-05T04:52:11.286Z,6.55
2022-11-05T04:55:16.385Z,6.38
2022-11-05T04:58:18.782Z,7.47
2022-11-05T05:01:23.083Z,7.35
2022-11-05T05:04:25.872Z,6.85
2022-11-05T05:07:28.231Z,6.50
2022-11-05T05:10:30.832Z,7.55
2022-11-05T05:13:33.122Z,7.72
2022-11-05T05:16:38.151Z,7.80
2022-11-05T05:19:40.814Z,8.25
2022-11-05T05:22:42.943Z,7.80
2022-11-05T05:25:45.122Z,7.13
2022-11-05T05:28:47.034Z,9.55
2022-11-05T05:31:48.963Z,8.30
2022-11-05T05:34:51.795Z,6.65
2022-11-05T05:37:56.884Z,7.95
2022-11-05T05:41:00.589Z,8.13
2022-11-05T05:44:05.666Z,7.75
2022-11-05T05:47:07.557Z,7.47
2022-11-05T05:50:09.530Z,10.73
2022-11-05T05:53:11.727Z,8.45
2022-11-05T05:59:15.907Z,7.65
2022-11-05T06:02:18.138Z,6.80
2022-11-05T06:05:20.120Z,8.02
2022-11-05T06:08:21.995Z,7.95
2022-11-05T06:11:24.899Z,8.05
2022-11-05T06:14:26.869Z,7.82
2022-11-05T06:21:20.999Z,8.95
2022-11-05T06:24:23.151Z,8.07
2022-11-05T06:27:25.315Z,9.60
2022-11-05T06:33:43.632Z,8.52
2022-11-05T06:36:45.532Z,7.80
2022-11-05T06:39:47.511Z,9.43
2022-11-05T06:42:52.843Z,8.98
2022-11-05T06:45:55.921Z,6.47
2022-11-05T06:48:58.293Z,7.63
2022-11-05T06:52:00.468Z,8.38
2022-11-05T06:55:02.607Z,6.60
2022-11-05T06:58:04.676Z,6.10
2022-11-05T07:01:09.373Z,8.02
2022-11-05T07:07:22.461Z,7.28
2022-11-05T07:10:24.541Z,7.07
2022-11-05T07:13:29.555Z,7.13
2022-11-05T07:16:31.591Z,5.78
2022-11-05T07:19:34.056Z,7.53
2022-11-05T07:22:36.954Z,6.78
2022-11-05T07:28:41.630Z,7.53
2022-11-05T07:31:43.634Z,7.95
2022-11-05T07:34:45.656Z,5.65
2022-11-05T07:37:49.758Z,7.15
2022-11-05T07:47:15.456Z,8.75
2022-11-05T07:50:19.209Z,9.25
2022-11-05T07:53:25.064Z,7.90
2022-11-05T07:56:27.004Z,6.20
2022-11-05T07:59:28.915Z,7.40
2022-11-05T08:02:33.191Z,7.95
2022-11-05T08:05:43.726Z,7.72
2022-11-05T08:08:45.659Z,6.78
2022-11-05T08:11:47.542Z,6.93
2022-11-05T08:14:49.523Z,7.50
2022-11-05T08:18:06.680Z,7.85
2022-11-05T08:21:08.805Z,6.55
2022-11-05T08:24:10.928Z,5.60
2022-11-05T08:27:12.928Z,6.97
2022-11-05T08:30:14.934Z,7.25
2022-11-05T08:33:17.618Z,6.90
2022-11-05T08:39:21.613Z,7.18
2022-11-05T08:42:23.730Z,7.53
2022-11-05T08:45:27.542Z,5.35
2022-11-05T08:52:09.818Z,5.97
2022-11-05T08:55:11.715Z,6.40
2022-11-05T08:58:15.863Z,7.13
2022-11-05T09:01:17.851Z,5.85
2022-11-05T09:04:19.869Z,5.28
2022-11-05T09:07:21.770Z,6.32
2022-11-05T09:10:23.881Z,5.43
2022-11-05T09:13:26.370Z,6.25
2022-11-05T09:16:28.626Z,5.72
2022-11-05T09:19:30.605Z,6.55
2022-11-05T09:22:32.640Z,5.28
2022-11-05T09:25:37.523Z,6.78
2022-11-05T09:28:40.180Z,6.13
2022-11-05T09:31:42.558Z,7.90
2022-11-05T09:34:44.581Z,6.78
2022-11-05T09:37:46.525Z,5.90
2022-11-05T09:41:08.420Z,6.55
2022-11-05T09:44:18.764Z,6.93
2022-11-05T09:47:35.704Z,8.18
2022-11-05T09:50:42.823Z,8.05
2022-11-05T09:53:45.982Z,6.05
2022-11-05T09:56:47.913Z,5.60
2022-11-05T10:03:13.787Z,10.00
2022-11-05T10:06:25.117Z,9.18
2022-11-05T10:09:32.634Z,4.95
2022-11-05T10:12:41.009Z,7.13
2022-11-05T10:19:17.108Z,6.22
2022-11-05T10:22:19.946Z,5.78
2022-11-05T10:25:24.728Z,5.70
2022-11-05T10:28:31.262Z,7.10
2022-11-05T10:31:37.132Z,5.30
2022-11-05T10:38:13.921Z,5.25
2022-11-05T10:41:46.975Z,7.95
2022-11-05T10:45:06.523Z,5.43
2022-11-05T10:48:26.217Z,5.35
2022-11-05T10:51:28.727Z,6.53
2022-11-05T10:54:34.546Z,6.35
2022-11-05T10:57:39.688Z,5.05
2022-11-05T11:00:52.414Z,5.13
2022-11-05T11:04:08.325Z,7.35
2022-11-05T11:07:22.215Z,7.68
2022-11-05T11:10:25.779Z,6.38
2022-11-05T11:13:49.612Z,5.32
2022-11-05T11:16:51.827Z,5.70
2022-11-05T11:20:16.227Z,6.88
2022-11-05T11:23:18.475Z,6.00
2022-11-05T11:26:21.124Z,7.68
2022-11-05T11:29:26.652Z,5.57
2022-11-05T11:32:37.720Z,5.43
2022-11-05T11:35:46.406Z,6.13
2022-11-05T11:38:48.305Z,7.15
2022-11-05T11:41:53.615Z,6.13
2022-11-05T11:44:57.632Z,8.65
2022-11-05T11:48:09.518Z,8.93
2022-11-05T12:03:33.461Z,6.63
2022-11-05T12:06:50.500Z,6.53
2022-11-05T12:10:00.909Z,10.15
2022-11-05T12:13:33.096Z,9.65
2022-11-05T12:17:14.778Z,7.07
2022-11-05T12:20:34.464Z,5.45
2022-11-05T12:24:15.062Z,7.95
2022-11-05T12:27:41.499Z,5.30
2022-11-05T12:31:16.264Z,6.80
2022-11-05T12:34:56.980Z,7.32
2022-11-05T12:38:36.756Z,4.68
2022-11-05T12:42:03.680Z,6.70
2022-11-05T12:45:21.704Z,6.22
2022-11-05T12:48:44.636Z,6.68
2022-11-05T12:52:23.090Z,7.00
2022-11-05T12:58:41.425Z,5.93
2022-11-05T13:01:49.154Z,3.92
2022-11-05T13:04:59.728Z,4.78
2022-11-05T13:08:42.639Z,6.00
2022-11-05T13:11:48.391Z,6.30
2022-11-05T13:15:14.261Z,8.02
2022-11-05T13:18:23.690Z,5.68
2022-11-05T13:21:28.500Z,5.82
2022-11-05T13:24:39.797Z,6.68
2022-11-05T13:27:46.438Z,7.10
2022-11-05T13:30:54.626Z,6.28
2022-11-05T13:34:04.723Z,7.43
2022-11-05T13:37:08.553Z,8.60
2022-11-05T13:40:13.867Z,7.53
2022-11-05T13:43:33.958Z,8.00
2022-11-05T13:46:56.906Z,7.05
2022-11-05T13:49:58.721Z,5.80
2022-11-05T13:53:09.601Z,6.43
2022-11-05T13:56:36.142Z,6.07
2022-11-05T14:00:19.445Z,5.55
2022-11-05T14:03:22.121Z,8.18
2022-11-05T14:06:36.420Z,5.88
2022-11-05T14:09:40.292Z,6.93
2022-11-05T14:12:48.235Z,7.38
2022-11-05T14:16:09.329Z,5.13
2022-11-05T14:19:20.872Z,9.43
2022-11-05T14:22:31.909Z,8.73
2022-11-05T14:25:36.679Z,11.38
2022-11-05T14:29:14.790Z,7.03
2022-11-05T14:32:22.753Z,6.78
2022-11-05T14:35:38.018Z,6.75
2022-11-05T14:38:50.666Z,7.03
2022-11-05T14:42:03.771Z,6.65
2022-11-05T14:45:21.598Z,6.72
2022-11-05T14:48:37.429Z,4.65
2022-11-05T14:51:44.744Z,5.82
2022-11-05T14:54:51.239Z,5.30
2022-11-05T14:57:53.049Z,9.23
2022-11-05T15:01:03.883Z,8.57
2022-11-05T15:04:26.169Z,7.75
2022-11-05T15:07:37.487Z,7.25
2022-11-05T15:10:40.651Z,9.30
2022-11-05T15:14:09.493Z,6.60
2022-11-05T15:17:22.675Z,6.00
2022-11-05T15:20:48.415Z,6.25
2022-11-05T15:23:55.224Z,7.47
2022-11-05T15:27:23.991Z,8.73
2022-11-05T15:30:26.706Z,5.25
2022-11-05T15:33:29.189Z,7.55
2022-11-05T15:36:32.092Z,6.45
2022-11-05T15:39:39.340Z,8.00
2022-11-05T15:42:41.355Z,9.85
2022-11-05T15:45:51.374Z,10.68
2022-11-05T15:48:57.686Z,7.95
2022-11-05T15:52:00.072Z,9.68
2022-11-05T15:55:12.800Z,6.97
2022-11-05T15:58:14.765Z,9.13
2022-11-05T16:01:23.346Z,12.65
2022-11-05T16:04:29.950Z,10.38
2022-11-05T16:07:31.918Z,10.98
2022-11-05T16:10:38.139Z,9.25
2022-11-05T16:13:41.837Z,11.75
2022-11-05T16:16:44.936Z,9.57
2022-11-05T16:19:47.527Z,9.15
2022-11-05T16:25:57.427Z,19.42
2022-11-05T16:29:10.144Z,37.33
2022-11-05T16:32:31.713Z,16.65
2022-11-05T16:35:33.956Z,20.33
2022-11-05T16:38:35.873Z,11.98
2022-11-05T16:41:42.943Z,11.88
2022-11-05T16:44:44.884Z,10.52
2022-11-05T16:47:47.513Z,8.90
2022-11-05T16:50:49.546Z,9.77
2022-11-05T16:53:51.523Z,12.75
2022-11-05T16:56:53.829Z,10.77
2022-11-05T16:59:56.689Z,9.85
2022-11-05T17:02:58.723Z,9.60
2022-11-05T17:06:00.726Z,11.52
2022-11-05T17:09:02.653Z,10.63
2022-11-05T17:12:04.803Z,14.38
2022-11-05T17:15:17.078Z,12.45
2022-11-05T17:18:20.522Z,10.27
2022-11-05T17:21:22.880Z,9.32
2022-11-05T17:24:25.005Z,14.98
2022-11-05T17:27:26.934Z,15.82
2022-11-05T17:30:29.493Z,15.52
2022-11-05T17:33:31.980Z,11.35
2022-11-05T17:39:42.012Z,9.23
2022-11-05T17:45:52.328Z,11.95
2022-11-05T17:48:54.239Z,10.55
2022-11-05T17:51:56.217Z,11.18
2022-11-05T17:54:58.123Z,12.27
2022-11-05T17:58:00.031Z,10.32
2022-11-05T18:01:02.394Z,13.27
2022-11-05T18:04:08.960Z,10.00
2022-11-05T18:07:11.192Z,10.95
2022-11-05T18:10:15.888Z,11.60
2022-11-05T18:13:17.756Z,8.35
2022-11-05T18:16:26.342Z,9.77
2022-11-05T18:19:28.382Z,8.88
2022-11-05T18:22:30.561Z,9.02
2022-11-05T18:25:32.558Z,8.30
2022-11-05T18:28:34.579Z,14.77
2022-11-05T18:31:36.449Z,16.20
2022-11-05T18:34:38.418Z,18.30
2022-11-05T18:37:40.590Z,17.13
2022-11-05T18:40:42.488Z,15.68
2022-11-05T18:43:44.965Z,16.60
2022-11-05T18:47:02.149Z,15.18
2022-11-05T18:50:05.967Z,12.43
2022-11-05T18:53:07.918Z,11.07
2022-11-05T18:56:11.996Z,10.55
2022-11-05T18:59:36.314Z,14.82
2022-11-05T19:02:40.124Z,10.82
2022-11-05T19:05:42.122Z,13.63
2022-11-05T19:08:44.520Z,11.05
2022-11-05T19:11:46.485Z,13.50
2022-11-05T19:14:48.359Z,13.52
2022-11-05T19:17:50.182Z,14.18
2022-11-05T19:20:52.087Z,11.75
2022-11-05T19:23:54.268Z,11.10
2022-11-05T19:26:56.564Z,14.40
2022-11-05T19:29:58.411Z,12.20
2022-11-05T19:33:00.402Z,18.25
2022-11-05T19:36:05.581Z,16.05
2022-11-05T19:39:09.380Z,14.70
2022-11-05T19:42:11.274Z,17.73
2022-11-05T19:48:35.864Z,17.13
2022-11-05T19:51:37.865Z,19.90
2022-11-05T19:54:42.274Z,21.95
2022-11-05T19:57:44.104Z,19.45
2022-11-05T20:00:46.005Z,15.10
2022-11-05T20:03:48.537Z,12.07
2022-11-05T20:06:50.491Z,11.55
2022-11-05T20:09:52.406Z,9.82
2022-11-05T20:12:54.317Z,11.18
2022-11-05T20:15:56.223Z,9.45
2022-11-05T20:18:58.258Z,11.13
2022-11-05T20:22:00.425Z,13.98
2022-11-05T20:25:02.411Z,12.60
2022-11-05T20:28:05.144Z,11.23
2022-11-05T20:34:09.985Z,18.40
2022-11-05T20:37:11.883Z,12.77
2022-11-05T20:40:16.248Z,13.60
2022-11-05T20:43:18.107Z,10.80
2022-11-05T20:46:21.973Z,13.98
2022-11-05T20:49:25.674Z,11.18
2022-11-05T20:52:28.262Z,11.48
2022-11-05T20:55:30.203Z,13.85
2022-11-05T20:58:32.575Z,9.98
2022-11-05T21:01:35.224Z,12.27
2022-11-05T21:04:37.331Z,11.52
2022-11-05T21:07:39.198Z,9.80
2022-11-05T21:10:43.105Z,10.40
2022-11-05T21:13:47.732Z,8.57
2022-11-05T21:16:49.753Z,11.90
2022-11-05T21:19:51.546Z,13.02
2022-11-05T21:22:53.464Z,10.85
2022-11-05T21:25:55.613Z,32.88
2022-11-05T21:28:57.524Z,18.30
2022-11-05T21:31:59.399Z,16.10
2022-11-05T21:35:01.661Z,19.33
2022-11-05T21:38:03.598Z,15.73
2022-11-05T21:41:06.111Z,12.10
2022-11-05T21:44:08.123Z,10.18
2022-11-05T21:47:13.900Z,10.70
2022-11-05T21:50:20.851Z,8.20
2022-11-05T21:53:23.995Z,10.25
2022-11-05T21:56:27.246Z,9.75
2022-11-05T21:59:29.746Z,8.50
2022-11-05T22:02:31.996Z,9.30
2022-11-05T22:05:34.265Z,14.85
2022-11-05T22:08:39.468Z,18.27
2022-11-05T22:11:41.364Z,20.88
2022-11-05T22:14:43.415Z,33.33
2022-11-05T22:17:49.660Z,18.42
2022-11-05T22:20:51.573Z,12.18
2022-11-05T22:23:54.029Z,25.52
2022-11-05T22:26:56.105Z,31.83
2022-11-05T22:29:57.988Z,19.48
2022-11-05T22:33:00.316Z,16.23
2022-11-05T22:36:04.231Z,15.95
2022-11-05T22:39:06.975Z,13.65
2022-11-05T22:42:09.063Z,17.55
2022-11-05T22:45:13.594Z,26.45
2022-11-05T22:48:15.868Z,18.25
2022-11-05T22:51:31.696Z,13.45
2022-11-05T22:54:38.880Z,14.43
2022-11-05T22:57:41.287Z,21.65
2022-11-05T23:00:43.324Z,18.10
2022-11-05T23:03:46.923Z,15.88
2022-11-05T23:06:48.755Z,14.75
2022-11-05T23:09:50.758Z,14.60
2022-11-05T23:12:55.133Z,14.18
2022-11-05T23:15:56.981Z,13.13
2022-11-05T23:19:01.087Z,10.52
2022-11-05T23:22:03.179Z,14.40
2022-11-05T23:25:06.816Z,10.52
2022-11-05T23:28:10.415Z,11.73
2022-11-05T23:31:12.858Z,9.93
2022-11-05T23:34:14.779Z,12.70
2022-11-05T23:37:16.706Z,11.00
2022-11-05T23:40:26.315Z,9.73
2022-11-05T23:43:28.272Z,10.05
2022-11-05T23:46:30.152Z,14.15
2022-11-05T23:49:32.257Z,11.82
2022-11-05T23:52:34.164Z,11.05
2022-11-05T23:55:36.645Z,11.75
2022-11-05T23:58:39.457Z,13.70
